createdAt,value
2023-02-03T00:02:26.923Z,76.13
2023-02-03T00:04:53.793Z,76.20
2023-02-03T00:07:20.630Z,76.18
2023-02-03T00:09:47.592Z,76.16
2023-02-03T00:12:14.554Z,76.10
2023-02-03T00:14:41.581Z,76.55
2023-02-03T00:17:08.395Z,76.72
2023-02-03T00:19:36.621Z,76.63
2023-02-03T00:22:03.687Z,76.34
2023-02-03T00:24:30.535Z,76.95
2023-02-03T00:26:57.485Z,76.89
2023-02-03T00:29:24.618Z,76.70
2023-02-03T00:31:52.369Z,77.15
2023-02-03T00:34:20.090Z,77.33
2023-02-03T00:36:48.204Z,76.74
2023-02-03T00:39:16.063Z,77.17
2023-02-03T00:41:43.108Z,77.11
2023-02-03T00:44:10.366Z,77.51
2023-02-03T00:46:37.764Z,76.96
2023-02-03T00:49:05.085Z,77.18
2023-02-03T00:51:32.764Z,77.45
2023-02-03T00:54:01.273Z,76.95
2023-02-03T00:56:29.717Z,77.01
2023-02-03T00:58:56.651Z,77.60
2023-02-03T01:01:23.578Z,77.66
2023-02-03T01:03:50.535Z,77.24
2023-02-03T01:06:20.418Z,77.25
2023-02-03T01:08:48.536Z,77.31
2023-02-03T01:11:23.233Z,77.86
2023-02-03T01:13:51.675Z,77.12
2023-02-03T01:16:22.835Z,77.93
2023-02-03T01:18:50.946Z,77.33
2023-02-03T01:21:21.153Z,77.39
2023-02-03T01:23:48.047Z,77.23
2023-02-03T01:26:20.203Z,77.95
2023-02-03T01:28:52.354Z,77.81
2023-02-03T01:31:24.526Z,78.11
2023-02-03T01:33:53.251Z,78.04
2023-02-03T01:36:23.211Z,78.49
2023-02-03T01:38:50.506Z,77.89
2023-02-03T01:41:22.094Z,78.13
2023-02-03T01:43:51.963Z,78.25
2023-02-03T01:46:30.520Z,78.44
2023-02-03T01:49:07.691Z,78.91
2023-02-03T01:51:36.422Z,78.31
2023-02-03T01:54:07.125Z,78.35
2023-02-03T01:56:41.067Z,78.57
2023-02-03T01:59:08.561Z,79.24
2023-02-03T02:01:36.247Z,78.96
2023-02-03T02:04:05.379Z,78.51
2023-02-03T02:06:32.481Z,79.03
2023-02-03T02:09:01.190Z,78.29
2023-02-03T02:11:29.126Z,78.87
2023-02-03T02:14:01.643Z,78.43
2023-02-03T02:16:47.289Z,78.49
2023-02-03T02:20:00.321Z,78.45
2023-02-03T02:22:36.741Z,78.52
2023-02-03T02:25:41.536Z,78.56
2023-02-03T02:28:50.884Z,78.60
2023-02-03T02:31:53.744Z,78.86
2023-02-03T02:34:37.497Z,78.63
2023-02-03T02:37:19.699Z,78.76
2023-02-03T02:39:59.968Z,78.95
2023-02-03T02:42:38.275Z,79.38
2023-02-03T02:45:15.995Z,78.77
2023-02-03T02:47:45.596Z,78.86
2023-02-03T02:50:22.660Z,78.70
2023-02-03T02:52:52.964Z,78.84
2023-02-03T02:55:26.688Z,79.18
2023-02-03T02:58:06.787Z,78.94
2023-02-03T03:00:36.454Z,79.24
2023-02-03T03:03:17.287Z,79.26
2023-02-03T03:05:52.433Z,79.31
2023-02-03T03:08:32.395Z,79.14
2023-02-03T03:11:01.625Z,78.69
2023-02-03T03:13:38.839Z,79.19
2023-02-03T03:16:11.746Z,79.33
2023-02-03T03:18:46.767Z,79.25
2023-02-03T03:21:24.713Z,79.09
2023-02-03T03:23:58.364Z,78.46
2023-02-03T03:26:35.907Z,79.02
2023-02-03T03:29:13.863Z,78.56
2023-02-03T03:31:41.789Z,78.28
2023-02-03T03:34:13.293Z,79.01
2023-02-03T03:36:48.298Z,78.77
2023-02-03T03:39:25.844Z,78.71
2023-02-03T03:42:04.910Z,79.65
2023-02-03T03:44:40.075Z,79.10
2023-02-03T03:47:17.320Z,79.74
2023-02-03T03:49:50.312Z,79.26
2023-02-03T03:52:25.936Z,80.54
2023-02-03T03:54:56.240Z,79.92
2023-02-03T03:57:30.820Z,80.45
2023-02-03T04:00:02.208Z,79.87
2023-02-03T04:02:45.811Z,80.04
2023-02-03T04:05:15.192Z,79.57
2023-02-03T04:07:44.955Z,79.76
2023-02-03T04:10:25.517Z,79.40
2023-02-03T04:12:52.662Z,79.81
2023-02-03T04:15:19.513Z,80.22
2023-02-03T04:17:46.400Z,80.35
2023-02-03T04:20:15.694Z,80.47
2023-02-03T04:22:42.829Z,80.32
2023-02-03T04:25:10.032Z,80.26
2023-02-03T04:27:37.076Z,80.62
2023-02-03T04:30:05.560Z,80.87
2023-02-03T04:32:32.486Z,80.51
2023-02-03T04:34:59.272Z,81.12
2023-02-03T04:37:28.317Z,81.35
2023-02-03T04:39:55.429Z,82.41
2023-02-03T04:42:23.584Z,82.67
2023-02-03T04:44:51.103Z,82.46
2023-02-03T04:47:19.170Z,82.66
2023-02-03T04:49:46.329Z,82.54
2023-02-03T04:52:15.154Z,82.75
2023-02-03T04:54:43.418Z,82.72
2023-02-03T04:57:10.609Z,83.01
2023-02-03T04:59:37.493Z,83.18
2023-02-03T05:02:05.234Z,82.75
2023-02-03T05:04:32.554Z,82.78
2023-02-03T05:06:59.434Z,83.05
2023-02-03T05:09:26.807Z,82.08
2023-02-03T05:11:55.255Z,82.90
2023-02-03T05:14:22.450Z,82.90
2023-02-03T05:16:49.356Z,83.04
2023-02-03T05:19:16.132Z,84.23
2023-02-03T05:21:43.049Z,84.51
2023-02-03T05:24:10.168Z,84.50
2023-02-03T05:26:36.968Z,84.47
2023-02-03T05:29:05.308Z,84.87
2023-02-03T05:31:32.148Z,85.03
2023-02-03T05:33:59.304Z,84.52
2023-02-03T05:36:26.567Z,85.19
2023-02-03T05:38:53.408Z,85.43
2023-02-03T05:41:20.815Z,85.30
2023-02-03T05:43:47.642Z,84.79
2023-02-03T05:46:16.010Z,85.77
2023-02-03T05:48:43.000Z,85.38
2023-02-03T05:51:09.836Z,85.95
2023-02-03T05:53:36.740Z,85.80
2023-02-03T05:56:03.852Z,86.02
2023-02-03T05:58:30.875Z,85.74
2023-02-03T06:00:57.691Z,85.41
2023-02-03T06:03:25.928Z,85.73
2023-02-03T06:05:52.738Z,84.84
2023-02-03T06:08:19.624Z,85.38
2023-02-03T06:10:46.487Z,85.47
2023-02-03T06:13:16.103Z,85.41
2023-02-03T06:15:43.321Z,85.43
2023-02-03T06:18:13.012Z,86.15
2023-02-03T06:20:42.235Z,85.70
2023-02-03T06:23:09.105Z,85.81
2023-02-03T06:25:36.137Z,86.05
2023-02-03T06:28:03.288Z,85.67
2023-02-03T06:30:30.471Z,86.29
2023-02-03T06:32:57.387Z,86.09
2023-02-03T06:35:24.805Z,86.58
2023-02-03T06:37:53.178Z,86.63
2023-02-03T06:40:20.535Z,86.31
2023-02-03T06:42:48.598Z,86.25
2023-02-03T06:45:15.958Z,86.32
2023-02-03T06:47:44.873Z,85.73
2023-02-03T06:50:15.122Z,86.26
2023-02-03T06:52:42.212Z,86.10
2023-02-03T06:55:10.607Z,85.52
2023-02-03T06:57:44.391Z,85.23
2023-02-03T07:00:18.112Z,85.58
2023-02-03T07:02:54.476Z,85.09
2023-02-03T07:05:21.711Z,85.09
2023-02-03T07:07:49.068Z,85.58
2023-02-03T07:10:17.874Z,85.15
2023-02-03T07:12:44.862Z,85.39
2023-02-03T07:15:12.255Z,84.55
2023-02-03T07:17:39.265Z,84.15
2023-02-03T07:20:06.975Z,84.95
2023-02-03T07:22:33.977Z,84.83
2023-02-03T07:25:00.793Z,84.43
2023-02-03T07:27:29.191Z,84.50
2023-02-03T07:29:56.278Z,85.43
2023-02-03T07:32:23.086Z,84.03
2023-02-03T07:34:49.965Z,84.94
2023-02-03T07:37:16.844Z,83.88
2023-02-03T07:39:51.190Z,84.73
2023-02-03T07:42:18.372Z,83.77
2023-02-03T07:44:48.241Z,83.66
2023-02-03T07:47:19.262Z,84.72
2023-02-03T07:49:46.400Z,83.61
2023-02-03T07:52:22.046Z,84.52
2023-02-03T07:54:50.122Z,84.26
2023-02-03T07:57:18.231Z,84.66
2023-02-03T07:59:52.313Z,84.28
2023-02-03T08:02:19.119Z,84.17
2023-02-03T08:09:32.234Z,83.59
2023-02-03T08:11:59.049Z,84.43
2023-02-03T08:14:25.850Z,83.85
2023-02-03T08:16:54.061Z,83.82
2023-02-03T08:19:20.810Z,83.80
2023-02-03T08:21:47.600Z,84.61
2023-02-03T08:24:14.495Z,83.91
2023-02-03T08:26:41.251Z,83.06
2023-02-03T08:29:08.268Z,82.87
2023-02-03T08:31:35.147Z,83.26
2023-02-03T08:34:03.512Z,82.64
2023-02-03T08:36:30.301Z,83.36
2023-02-03T08:38:57.189Z,81.98
2023-02-03T08:41:24.055Z,82.01
2023-02-03T08:43:50.836Z,82.64
2023-02-03T08:46:17.910Z,82.72
2023-02-03T08:48:44.813Z,82.24
2023-02-03T08:51:16.895Z,82.87
2023-02-03T08:53:44.408Z,82.34
2023-02-03T08:56:12.698Z,82.74
2023-02-03T08:58:39.929Z,83.35
2023-02-03T09:01:08.994Z,83.31
2023-02-03T09:03:36.652Z,83.74
2023-02-03T09:06:05.389Z,82.74
2023-02-03T09:08:34.064Z,82.50
2023-02-03T09:11:00.991Z,82.21
2023-02-03T09:13:27.899Z,80.73
2023-02-03T09:15:55.791Z,81.24
2023-02-03T09:18:22.629Z,80.95
2023-02-03T09:20:49.626Z,81.25
2023-02-03T09:23:16.527Z,81.61
2023-02-03T09:25:47.797Z,81.89
2023-02-03T09:28:16.062Z,82.57
2023-02-03T09:30:44.308Z,83.07
2023-02-03T09:33:11.255Z,83.52
2023-02-03T09:35:38.114Z,82.93
2023-02-03T09:38:04.931Z,83.21
2023-02-03T09:40:36.855Z,83.30
2023-02-03T09:43:33.763Z,83.57
2023-02-03T09:46:06.925Z,83.49
2023-02-03T09:48:42.815Z,83.56
2023-02-03T09:51:22.508Z,83.16
2023-02-03T09:53:58.324Z,83.02
2023-02-03T09:56:32.203Z,82.59
2023-02-03T09:59:01.136Z,82.37
2023-02-03T10:01:41.867Z,81.81
2023-02-03T10:04:31.445Z,82.08
2023-02-03T10:07:12.027Z,82.15
2023-02-03T10:10:00.691Z,82.28
2023-02-03T10:12:59.014Z,82.71
2023-02-03T10:15:53.439Z,82.45
2023-02-03T10:18:28.389Z,82.30
2023-02-03T10:21:02.239Z,82.33
2023-02-03T10:23:35.081Z,82.29
2023-02-03T10:26:09.478Z,82.31
2023-02-03T10:28:45.487Z,82.27
2023-02-03T10:31:19.968Z,82.73
2023-02-03T10:33:47.917Z,81.97
2023-02-03T10:36:20.800Z,80.89
2023-02-03T10:39:01.249Z,81.81
2023-02-03T10:41:31.225Z,81.45
2023-02-03T10:44:02.254Z,81.59
2023-02-03T10:46:37.726Z,82.46
2023-02-03T10:49:05.513Z,82.24
2023-02-03T10:51:40.458Z,82.35
2023-02-03T10:54:29.384Z,82.69
2023-02-03T10:57:04.835Z,82.29
2023-02-03T10:59:35.904Z,81.67
2023-02-03T11:02:10.506Z,81.60
2023-02-03T11:04:37.658Z,80.99
2023-02-03T11:07:07.601Z,81.32
2023-02-03T11:09:37.809Z,81.71
2023-02-03T11:12:13.639Z,82.25
2023-02-03T11:14:43.173Z,82.02
2023-02-03T11:17:17.783Z,83.25
2023-02-03T11:19:47.233Z,83.81
2023-02-03T11:22:30.490Z,83.47
2023-02-03T11:24:59.978Z,82.83
2023-02-03T11:27:31.938Z,82.08
2023-02-03T11:30:15.208Z,81.57
2023-02-03T11:32:47.439Z,81.67
2023-02-03T11:35:19.135Z,81.06
2023-02-03T11:37:49.282Z,80.78
2023-02-03T11:40:27.481Z,80.57
2023-02-03T11:43:05.275Z,80.08
2023-02-03T11:45:39.815Z,79.72
2023-02-03T11:48:26.510Z,79.96
2023-02-03T11:51:04.674Z,79.10
2023-02-03T11:53:56.852Z,79.41
2023-02-03T11:56:47.063Z,79.71
2023-02-03T11:59:52.002Z,79.00
2023-02-03T12:03:17.744Z,78.73
2023-02-03T12:06:01.994Z,78.39
2023-02-03T12:08:57.162Z,78.72
2023-02-03T12:11:46.308Z,78.25
2023-02-03T12:14:40.396Z,78.21
2023-02-03T12:17:43.978Z,78.48
2023-02-03T12:20:41.257Z,78.46
2023-02-03T12:23:31.631Z,78.57
2023-02-03T12:26:16.305Z,78.49
2023-02-03T12:28:56.394Z,78.54
2023-02-03T12:31:34.513Z,78.67
2023-02-03T12:34:15.393Z,78.19
2023-02-03T12:36:49.936Z,78.07
2023-02-03T12:39:29.348Z,78.04
2023-02-03T12:42:03.262Z,78.49
2023-02-03T12:44:40.537Z,78.26
2023-02-03T12:47:18.040Z,77.88
2023-02-03T12:49:53.321Z,78.37
2023-02-03T12:52:30.040Z,77.90
2023-02-03T12:55:15.006Z,78.03
2023-02-03T12:57:51.013Z,79.04
2023-02-03T13:00:36.016Z,79.11
2023-02-03T13:03:21.778Z,79.42
2023-02-03T13:06:07.437Z,79.56
2023-02-03T13:08:39.600Z,79.56
2023-02-03T13:11:22.967Z,79.54
2023-02-03T13:13:55.704Z,79.82
2023-02-03T13:16:29.768Z,79.62
2023-02-03T13:19:05.541Z,80.05
2023-02-03T13:21:32.579Z,79.92
2023-02-03T13:23:59.702Z,79.45
2023-02-03T13:27:17.008Z,79.46
2023-02-03T13:30:11.328Z,79.46
2023-02-03T13:33:28.384Z,79.68
2023-02-03T13:36:15.978Z,79.50
2023-02-03T13:39:15.652Z,79.42
2023-02-03T13:41:50.824Z,79.37
2023-02-03T13:44:28.213Z,79.01
2023-02-03T13:46:59.679Z,78.92
2023-02-03T13:49:33.035Z,78.31
2023-02-03T13:52:01.016Z,78.55
2023-02-03T13:54:35.270Z,78.11
2023-02-03T13:57:06.376Z,77.90
2023-02-03T13:59:44.219Z,77.41
2023-02-03T14:02:42.828Z,77.03
2023-02-03T14:05:43.520Z,77.47
2023-02-03T14:08:48.463Z,76.94
2023-02-03T14:11:41.604Z,76.88
2023-02-03T14:14:59.743Z,76.92
2023-02-03T14:18:30.595Z,76.77
2023-02-03T14:21:16.976Z,76.34
2023-02-03T14:23:52.265Z,76.26
2023-02-03T14:26:38.655Z,76.47
2023-02-03T14:29:07.826Z,76.36
2023-02-03T14:31:58.607Z,76.58
2023-02-03T14:34:33.234Z,76.68
2023-02-03T14:37:15.670Z,76.75
2023-02-03T14:40:14.045Z,76.97
2023-02-03T14:43:23.924Z,77.28
2023-02-03T14:46:19.787Z,77.67
2023-02-03T14:49:06.168Z,78.28
2023-02-03T14:52:02.612Z,78.22
2023-02-03T14:54:58.264Z,78.17
2023-02-03T14:57:40.207Z,78.50
2023-02-03T15:00:26.855Z,78.44
2023-02-03T15:03:21.680Z,78.59
2023-02-03T15:05:57.373Z,78.90
2023-02-03T15:08:46.386Z,79.20
2023-02-03T15:11:30.645Z,78.83
2023-02-03T15:14:19.855Z,79.75
2023-02-03T15:16:53.678Z,80.47
2023-02-03T15:19:31.771Z,80.82
2023-02-03T15:22:00.406Z,81.73
2023-02-03T15:24:36.815Z,82.19
2023-02-03T15:27:04.047Z,82.66
2023-02-03T15:29:34.122Z,82.68
2023-02-03T15:32:12.301Z,83.02
2023-02-03T15:34:45.011Z,83.64
2023-02-03T15:37:21.115Z,83.85
2023-02-03T15:40:00.259Z,84.56
2023-02-03T15:42:36.438Z,85.09
2023-02-03T15:45:16.957Z,85.43
2023-02-03T15:47:54.510Z,85.73
2023-02-03T15:50:31.759Z,86.60
2023-02-03T15:53:08.813Z,86.94
2023-02-03T15:55:41.583Z,87.08
2023-02-03T15:58:19.014Z,87.61
2023-02-03T16:00:51.260Z,87.55
2023-02-03T16:03:22.817Z,87.51
2023-02-03T16:05:54.166Z,87.50
2023-02-03T16:08:38.904Z,88.19
2023-02-03T16:11:33.795Z,87.54
2023-02-03T16:14:03.464Z,88.22
2023-02-03T16:16:37.990Z,87.47
2023-02-03T16:19:13.070Z,87.27
2023-02-03T16:21:54.203Z,87.29
2023-02-03T16:24:38.989Z,87.06
2023-02-03T16:27:32.472Z,86.63
2023-02-03T16:30:25.101Z,86.23
2023-02-03T16:33:09.949Z,86.51
2023-02-03T16:35:36.984Z,85.71
2023-02-03T16:38:06.819Z,85.89
2023-02-03T16:40:35.051Z,85.48
2023-02-03T16:43:03.038Z,85.10
2023-02-03T16:45:30.117Z,85.30
2023-02-03T16:47:57.307Z,85.43
2023-02-03T16:50:37.403Z,85.10
2023-02-03T16:53:06.367Z,85.16
2023-02-03T16:55:34.593Z,85.46
2023-02-03T16:58:01.456Z,85.56
2023-02-03T17:00:28.546Z,85.00
2023-02-03T17:02:57.657Z,84.97
2023-02-03T17:05:27.281Z,85.22
2023-02-03T17:07:57.068Z,85.40
2023-02-03T17:10:24.538Z,85.17
2023-02-03T17:12:53.044Z,84.50
2023-02-03T17:15:19.899Z,84.99
2023-02-03T17:17:47.141Z,84.51
2023-02-03T17:20:14.401Z,84.83
2023-02-03T17:22:41.602Z,84.47
2023-02-03T17:25:08.640Z,84.25
2023-02-03T17:27:35.487Z,84.21
2023-02-03T17:30:04.973Z,84.64
2023-02-03T17:32:31.756Z,84.37
2023-02-03T17:34:58.655Z,84.61
2023-02-03T17:37:25.508Z,84.33
2023-02-03T17:53:37.851Z,85.46
2023-02-03T17:56:12.560Z,85.33
2023-02-03T17:58:41.324Z,85.81
2023-02-03T18:01:12.962Z,86.02
2023-02-03T18:03:40.002Z,86.28
2023-02-03T18:06:13.333Z,87.03
2023-02-03T18:08:45.035Z,88.20
2023-02-03T18:11:18.981Z,88.21
2023-02-03T18:13:49.521Z,88.82
2023-02-03T18:16:22.603Z,89.00
2023-02-03T18:18:53.385Z,89.59
2023-02-03T18:21:22.488Z,89.23
2023-02-03T18:23:50.918Z,89.65
2023-02-03T18:26:20.533Z,89.78
2023-02-03T18:28:51.101Z,90.61
2023-02-03T18:31:20.739Z,90.04
2023-02-03T18:36:42.900Z,90.79
2023-02-03T18:39:14.350Z,90.28
2023-02-03T18:41:41.262Z,90.60
2023-02-03T18:44:08.170Z,90.99
2023-02-03T18:46:36.592Z,91.42
2023-02-03T18:49:03.918Z,91.63
2023-02-03T18:51:30.683Z,91.83
2023-02-03T18:53:59.276Z,91.51
2023-02-03T18:56:29.112Z,91.38
2023-02-03T18:58:56.408Z,91.19
2023-02-03T19:01:26.014Z,90.82
2023-02-03T19:03:56.087Z,90.97
2023-02-03T19:06:24.300Z,91.66
2023-02-03T19:08:51.832Z,91.56
2023-02-03T19:11:20.222Z,91.06
2023-02-03T19:13:47.180Z,91.46
2023-02-03T19:16:16.328Z,90.96
2023-02-03T19:18:43.474Z,90.86
2023-02-03T19:21:13.275Z,90.63
2023-02-03T19:23:41.024Z,91.15
2023-02-03T19:26:09.224Z,91.07
2023-02-03T19:28:36.617Z,91.33
2023-02-03T19:31:08.145Z,91.47
2023-02-03T19:33:35.834Z,91.06
2023-02-03T19:36:02.841Z,91.10
2023-02-03T19:38:31.179Z,91.00
2023-02-03T19:40:58.354Z,91.42
2023-02-03T19:43:25.367Z,91.20
2023-02-03T19:45:52.311Z,91.51
2023-02-03T19:48:19.542Z,91.75
2023-02-03T19:50:47.245Z,91.21
2023-02-03T19:53:15.644Z,91.60
2023-02-03T19:55:44.784Z,91.62
2023-02-03T19:58:13.396Z,91.42
2023-02-03T20:00:41.862Z,90.79
2023-02-03T20:03:09.198Z,90.47
2023-02-03T20:05:36.583Z,90.03
2023-02-03T20:08:04.419Z,89.80
2023-02-03T20:10:32.230Z,90.06
2023-02-03T20:13:00.930Z,89.19
2023-02-03T20:15:28.327Z,89.61
2023-02-03T20:17:55.327Z,88.95
2023-02-03T20:20:23.694Z,89.10
2023-02-03T20:22:50.721Z,89.11
2023-02-03T20:25:18.243Z,89.07
2023-02-03T20:27:46.055Z,89.38
2023-02-03T20:30:14.423Z,89.07
2023-02-03T20:32:41.514Z,89.24
2023-02-03T20:35:09.301Z,88.93
2023-02-03T20:37:36.185Z,89.30
2023-02-03T20:40:12.174Z,88.89
2023-02-03T20:42:38.928Z,88.85
2023-02-03T20:45:15.040Z,88.80
2023-02-03T20:47:42.786Z,88.89
2023-02-03T20:50:17.367Z,88.98
2023-02-03T20:52:44.356Z,88.15
2023-02-03T20:55:13.810Z,88.47
2023-02-03T20:57:41.657Z,87.68
2023-02-03T21:00:20.308Z,87.10
2023-02-03T21:02:48.800Z,86.33
2023-02-03T21:05:25.761Z,86.19
2023-02-03T21:07:52.729Z,86.64
2023-02-03T21:10:24.413Z,86.19
2023-02-03T21:12:51.850Z,87.09
2023-02-03T21:15:25.700Z,87.10
2023-02-03T21:17:52.559Z,87.47
2023-02-03T21:20:27.070Z,87.64
2023-02-03T21:22:56.218Z,86.59
2023-02-03T21:25:27.815Z,86.44
2023-02-03T21:27:55.125Z,85.96
2023-02-03T21:30:27.923Z,87.00
2023-02-03T21:32:54.958Z,86.71
2023-02-03T21:35:25.001Z,87.16
2023-02-03T21:37:56.427Z,86.80
2023-02-03T21:40:27.380Z,85.65
2023-02-03T21:42:55.018Z,86.38
2023-02-03T21:45:36.508Z,86.78
2023-02-03T21:48:27.299Z,87.16
2023-02-03T21:50:55.903Z,87.08
2023-02-03T21:53:29.219Z,87.67
2023-02-03T21:55:56.126Z,88.15
2023-02-03T21:58:26.442Z,88.53
2023-02-03T22:00:57.531Z,89.09
2023-02-03T22:03:36.004Z,89.54
2023-02-03T22:06:18.586Z,89.25
2023-02-03T22:08:47.971Z,88.79
2023-02-03T22:11:16.904Z,89.30
2023-02-03T22:13:44.484Z,89.34
2023-02-03T22:16:12.929Z,89.37
2023-02-03T22:18:40.203Z,89.61
2023-02-03T22:21:07.193Z,89.09
2023-02-03T22:23:34.219Z,89.44
2023-02-03T22:26:01.037Z,89.23
2023-02-03T22:28:28.043Z,89.27
2023-02-03T22:30:54.852Z,89.51
2023-02-03T22:33:23.178Z,89.94
2023-02-03T22:35:49.948Z,89.23
2023-02-03T22:38:16.799Z,88.53
2023-02-03T22:40:43.568Z,88.85
2023-02-03T22:43:10.342Z,88.40
2023-02-03T22:45:37.273Z,88.19
2023-02-03T22:48:05.417Z,88.54
2023-02-03T22:50:36.199Z,88.29
2023-02-03T22:53:04.257Z,88.10
2023-02-03T22:55:32.436Z,88.33
2023-02-03T22:57:59.432Z,88.66
2023-02-03T23:00:26.936Z,88.32
2023-02-03T23:02:54.229Z,88.44
2023-02-03T23:05:22.446Z,88.34
2023-02-03T23:07:51.232Z,88.03
2023-02-03T23:10:20.905Z,88.23
2023-02-03T23:12:48.105Z,87.77
2023-02-03T23:15:15.335Z,88.11
2023-02-03T23:17:42.132Z,87.84
2023-02-03T23:20:12.928Z,87.79
2023-02-03T23:22:39.804Z,87.81
2023-02-03T23:25:09.325Z,88.00
2023-02-03T23:27:36.464Z,88.15
2023-02-03T23:30:04.005Z,88.03
2023-02-03T23:32:30.856Z,87.53
2023-02-03T23:34:57.652Z,88.10
2023-02-03T23:37:24.414Z,87.76
2023-02-03T23:39:51.248Z,88.31
2023-02-03T23:42:19.373Z,87.72
2023-02-03T23:44:46.266Z,87.52
2023-02-03T23:47:13.137Z,87.12
2023-02-03T23:49:40.100Z,87.34
2023-02-03T23:52:06.941Z,87.28
2023-02-03T23:54:33.699Z,87.04
2023-02-03T23:57:00.630Z,87.38
2023-02-03T23:59:28.763Z,87.59
